createdAt,value
2019-05-11T00:00:50.499Z,101039.56
2019-05-11T00:03:19.864Z,101039.56
2019-05-11T00:05:48.732Z,101035.59
2019-05-11T00:08:17.745Z,101023.00
2019-05-11T00:10:46.732Z,101017.77
2019-05-11T00:13:16.041Z,101009.05
2019-05-11T00:15:45.036Z,101009.05
2019-05-11T00:18:14.045Z,101007.26
2019-05-11T00:20:43.337Z,101005.52
2019-05-11T00:23:12.623Z,101016.45
2019-05-11T00:25:41.547Z,101021.02
2019-05-11T00:28:10.843Z,101012.86
2019-05-11T00:30:39.552Z,101025.77
2019-05-11T00:33:08.509Z,101006.56
2019-05-11T00:35:37.547Z,101015.95
2019-05-11T00:38:06.179Z,101013.92
2019-05-11T00:40:34.883Z,101013.92
2019-05-11T00:43:03.682Z,101018.58
2019-05-11T00:45:32.318Z,101018.58
2019-05-11T00:48:01.540Z,101017.22
2019-05-11T00:50:38.941Z,101018.52
2019-05-11T00:53:00.648Z,101026.38
2019-05-11T00:55:29.315Z,101026.38
2019-05-11T00:57:58.219Z,101022.82
2019-05-11T01:00:27.528Z,101024.50
2019-05-11T01:02:56.773Z,101022.92
2019-05-11T01:05:25.443Z,101021.21
2019-05-11T01:07:54.523Z,101021.24
2019-05-11T01:10:33.798Z,101021.24
2019-05-11T01:12:53.559Z,101022.92
2019-05-11T01:15:22.591Z,101029.91
2019-05-11T01:17:51.538Z,101029.91
2019-05-11T01:20:20.602Z,101028.41
2019-05-11T01:22:49.255Z,101028.41
2019-05-11T01:25:17.906Z,101032.70
2019-05-11T01:27:46.866Z,101027.47
2019-05-11T01:30:15.712Z,101019.06
2019-05-11T01:32:44.347Z,101020.32
2019-05-11T01:35:13.049Z,101012.44
2019-05-11T01:37:42.354Z,101005.22
2019-05-11T01:40:11.275Z,101007.80
2019-05-11T01:42:40.525Z,101006.41
2019-05-11T01:45:09.444Z,101006.41
2019-05-11T01:47:38.452Z,101004.34
2019-05-11T01:50:07.816Z,101002.92
2019-05-11T01:52:36.815Z,101012.51
2019-05-11T01:55:05.724Z,101010.59
2019-05-11T01:57:34.623Z,101009.64
2019-05-11T02:00:04.093Z,101011.70
2019-05-11T02:02:35.194Z,101011.70
2019-05-11T02:05:22.352Z,101018.56
2019-05-11T02:07:51.352Z,101018.77
2019-05-11T02:10:20.075Z,101017.14
2019-05-11T02:12:48.726Z,101014.52
2019-05-11T02:15:17.720Z,101017.81
2019-05-11T02:17:46.355Z,101015.52
2019-05-11T02:20:15.807Z,101021.31
2019-05-11T02:22:44.441Z,101017.52
2019-05-11T02:25:14.512Z,101017.52
2019-05-11T02:27:43.529Z,101012.81
2019-05-11T02:30:12.512Z,101019.19
2019-05-11T02:32:41.495Z,101018.92
2019-05-11T02:35:10.238Z,101013.53
2019-05-11T02:37:39.178Z,101001.97
2019-05-11T02:40:07.998Z,101014.20
2019-05-11T02:42:37.102Z,101017.69
2019-05-11T02:45:06.825Z,101014.77
2019-05-11T02:47:35.775Z,101007.41
2019-05-11T02:50:05.174Z,101012.31
2019-05-11T02:52:34.771Z,101016.07
2019-05-11T02:55:03.600Z,101016.07
2019-05-11T02:57:32.555Z,101016.19
2019-05-11T03:00:01.969Z,101008.58
2019-05-11T03:02:30.578Z,101016.38
2019-05-11T03:05:00.463Z,101027.37
2019-05-11T03:07:29.668Z,101021.05
2019-05-11T03:09:58.852Z,101021.05
2019-05-11T03:12:27.857Z,101023.85
2019-05-11T03:14:56.855Z,101020.86
2019-05-11T03:17:30.040Z,101021.73
2019-05-11T03:19:59.236Z,101029.23
2019-05-11T03:22:28.549Z,101027.89
2019-05-11T03:24:57.427Z,101028.81
2019-05-11T03:27:26.339Z,101026.64
2019-05-11T03:30:00.021Z,101032.48
2019-05-11T03:32:25.679Z,101040.94
2019-05-11T03:34:54.648Z,101038.06
2019-05-11T03:37:23.302Z,101042.77
2019-05-11T03:39:51.918Z,101050.87
2019-05-11T03:42:21.198Z,101061.86
2019-05-11T03:44:49.824Z,101060.19
2019-05-11T03:47:18.466Z,101065.34
2019-05-11T03:49:47.976Z,101066.42
2019-05-11T03:52:16.673Z,101064.00
2019-05-11T03:54:45.557Z,101062.38
2019-05-11T03:57:14.558Z,101067.45
2019-05-11T03:59:43.521Z,101060.05
2019-05-11T04:02:12.435Z,101061.69
2019-05-11T04:04:41.455Z,101067.78
2019-05-11T04:07:10.425Z,101075.64
2019-05-11T04:09:39.130Z,101070.56
2019-05-11T04:12:08.107Z,101059.98
2019-05-11T04:14:37.297Z,101064.67
2019-05-11T04:17:06.603Z,101073.38
2019-05-11T04:19:35.246Z,101078.53
2019-05-11T04:22:04.282Z,101085.47
2019-05-11T04:24:32.946Z,101076.38
2019-05-11T04:27:02.481Z,101086.76
2019-05-11T04:29:31.454Z,101081.98
2019-05-11T04:32:00.088Z,101081.98
2019-05-11T04:34:29.044Z,101079.02
2019-05-11T04:36:58.241Z,101085.02
2019-05-11T04:39:27.443Z,101093.20
2019-05-11T04:41:56.059Z,101089.08
2019-05-11T04:44:24.710Z,101086.11
2019-05-11T04:46:54.008Z,101082.70
2019-05-11T04:49:22.651Z,101091.96
2019-05-11T04:51:51.589Z,101094.16
2019-05-11T04:54:20.237Z,101099.03
2019-05-11T04:56:49.186Z,101099.03
2019-05-11T04:59:18.770Z,101106.72
2019-05-11T05:01:48.074Z,101111.36
2019-05-11T05:04:16.806Z,101108.25
2019-05-11T05:06:58.946Z,101111.25
2019-05-11T05:09:16.149Z,101111.36
2019-05-11T05:11:44.798Z,101111.36
2019-05-11T05:14:13.774Z,101109.13
2019-05-11T05:16:42.426Z,101115.65
2019-05-11T05:19:12.038Z,101115.65
2019-05-11T05:21:40.688Z,101125.03
2019-05-11T05:24:09.320Z,101112.30
2019-05-11T05:26:37.977Z,101111.10
2019-05-11T05:29:06.927Z,101111.10
2019-05-11T05:31:37.021Z,101110.78
2019-05-11T05:34:05.664Z,101110.78
2019-05-11T05:36:34.601Z,101109.81
2019-05-11T05:39:03.742Z,101099.03
2019-05-11T05:41:32.996Z,101099.03
2019-05-11T05:44:01.891Z,101106.94
2019-05-11T05:46:31.073Z,101102.48
2019-05-11T05:49:00.077Z,101102.48
2019-05-11T05:51:29.052Z,101107.72
2019-05-11T05:53:58.581Z,101115.43
2019-05-11T05:56:27.570Z,101109.39
2019-05-11T05:58:56.246Z,101109.39
2019-05-11T06:01:25.470Z,101114.31
2019-05-11T06:03:54.762Z,101121.87
2019-05-11T06:06:23.749Z,101125.80
2019-05-11T06:08:52.957Z,101125.80
2019-05-11T06:11:21.602Z,101109.14
2019-05-11T06:13:50.849Z,101117.64
2019-05-11T06:16:19.599Z,101117.22
2019-05-11T06:18:48.529Z,101125.80
2019-05-11T06:21:17.167Z,101121.25
2019-05-11T06:23:45.822Z,101129.13
2019-05-11T06:26:15.106Z,101142.97
2019-05-11T06:28:44.389Z,101135.49
2019-05-11T06:31:13.283Z,101141.33
2019-05-11T06:33:42.172Z,101138.36
2019-05-11T06:36:10.837Z,101137.09
2019-05-11T06:38:39.462Z,101141.60
2019-05-11T06:41:08.440Z,101137.48
2019-05-11T06:43:37.471Z,101142.84
2019-05-11T06:46:06.733Z,101143.05
2019-05-11T06:48:35.619Z,101145.80
2019-05-11T06:51:04.283Z,101141.74
2019-05-11T06:53:32.918Z,101145.03
2019-05-11T06:56:01.558Z,101145.77
2019-05-11T06:58:30.189Z,101150.70
2019-05-11T07:00:59.155Z,101149.89
2019-05-11T07:03:28.052Z,101158.19
2019-05-11T07:05:57.260Z,101155.67
2019-05-11T07:08:25.865Z,101159.02
2019-05-11T07:10:55.136Z,101174.59
2019-05-11T07:13:24.152Z,101173.98
2019-05-11T07:15:53.427Z,101172.91
2019-05-11T07:18:22.074Z,101174.51
2019-05-11T07:20:51.163Z,101178.89
2019-05-11T07:23:20.301Z,101176.73
2019-05-11T07:25:48.901Z,101182.59
2019-05-11T07:28:17.632Z,101185.98
2019-05-11T07:30:46.278Z,101189.67
2019-05-11T07:33:14.904Z,101189.67
2019-05-11T07:35:43.861Z,101199.13
2019-05-11T07:38:12.468Z,101197.84
2019-05-11T07:40:41.427Z,101196.75
2019-05-11T07:43:10.868Z,101196.86
2019-05-11T07:45:39.920Z,101196.18
2019-05-11T07:48:09.113Z,101196.58
2019-05-11T07:50:38.851Z,101200.17
2019-05-11T07:53:08.378Z,101194.27
2019-05-11T07:55:38.487Z,101197.02
2019-05-11T07:58:08.086Z,101192.94
2019-05-11T08:00:39.805Z,101195.02
2019-05-11T08:03:09.035Z,101198.06
2019-05-11T08:05:38.732Z,101191.23
2019-05-11T08:08:08.680Z,101196.73
2019-05-11T08:10:39.019Z,101195.88
2019-05-11T08:13:09.183Z,101195.38
2019-05-11T08:15:38.442Z,101192.94
2019-05-11T08:18:08.543Z,101186.14
2019-05-11T08:20:38.509Z,101191.05
2019-05-11T08:23:09.159Z,101188.06
2019-05-11T08:25:38.460Z,101184.07
2019-05-11T08:28:14.379Z,101193.00
2019-05-11T08:30:43.306Z,101196.63
2019-05-11T08:33:12.609Z,101204.75
2019-05-11T08:35:41.320Z,101201.59
2019-05-11T08:38:09.956Z,101203.45
2019-05-11T08:40:38.677Z,101202.94
2019-05-11T08:43:08.789Z,101202.94
2019-05-11T08:45:39.281Z,101209.45
2019-05-11T08:48:08.610Z,101214.38
2019-05-11T08:50:38.256Z,101213.20
2019-05-11T08:53:08.623Z,101217.05
2019-05-11T08:55:38.312Z,101208.80
2019-05-11T08:58:07.973Z,101206.77
2019-05-11T09:00:38.928Z,101202.09
2019-05-11T09:03:08.705Z,101199.39
2019-05-11T09:05:38.409Z,101200.12
2019-05-11T09:08:08.309Z,101197.59
2019-05-11T09:10:39.705Z,101190.27
2019-05-11T09:13:08.108Z,101202.80
2019-05-11T09:15:40.452Z,101203.17
2019-05-11T09:18:08.517Z,101194.55
2019-05-11T09:20:38.000Z,101201.87
2019-05-11T09:23:08.243Z,101201.86
2019-05-11T09:25:38.463Z,101208.02
2019-05-11T09:28:08.608Z,101201.84
2019-05-11T09:30:37.892Z,101200.18
2019-05-11T09:33:08.580Z,101196.40
2019-05-11T09:35:47.553Z,101199.00
2019-05-11T09:38:08.410Z,101203.34
2019-05-11T09:40:38.603Z,101204.55
2019-05-11T09:43:08.644Z,101206.05
2019-05-11T09:45:48.125Z,101214.34
2019-05-11T09:48:08.739Z,101208.61
2019-05-11T09:50:38.817Z,101211.34
2019-05-11T09:53:08.525Z,101205.75
2019-05-11T09:55:39.002Z,101213.59
2019-05-11T09:58:08.508Z,101214.47
2019-05-11T10:00:38.809Z,101210.54
2019-05-11T10:03:08.316Z,101212.09
2019-05-11T10:05:38.420Z,101212.20
2019-05-11T10:08:07.933Z,101217.48
2019-05-11T10:10:38.379Z,101220.50
2019-05-11T10:13:08.107Z,101217.95
2019-05-11T10:15:38.504Z,101219.27
2019-05-11T10:18:08.190Z,101214.44
2019-05-11T10:20:39.018Z,101212.71
2019-05-11T10:23:08.372Z,101201.38
2019-05-11T10:25:39.080Z,101203.16
2019-05-11T10:28:08.695Z,101194.84
2019-05-11T10:30:38.591Z,101202.23
2019-05-11T10:33:08.402Z,101196.20
2019-05-11T10:35:37.856Z,101196.08
2019-05-11T10:38:09.002Z,101195.20
2019-05-11T10:40:38.772Z,101212.86
2019-05-11T10:43:08.048Z,101215.28
2019-05-11T10:45:37.910Z,101212.26
2019-05-11T10:48:08.739Z,101224.48
2019-05-11T10:50:38.073Z,101227.52
2019-05-11T10:53:08.003Z,101224.72
2019-05-11T10:55:38.617Z,101234.26
2019-05-11T10:58:08.625Z,101233.75
2019-05-11T11:00:38.830Z,101234.70
2019-05-11T11:03:08.559Z,101223.88
2019-05-11T11:05:38.458Z,101225.41
2019-05-11T11:08:08.422Z,101223.28
2019-05-11T11:10:37.886Z,101230.55
2019-05-11T11:13:08.433Z,101223.17
2019-05-11T11:15:38.222Z,101220.42
2019-05-11T11:18:08.592Z,101224.81
2019-05-11T11:20:38.473Z,101224.25
2019-05-11T11:23:08.784Z,101222.97
2019-05-11T11:25:37.874Z,101223.72
2019-05-11T11:28:08.449Z,101223.48
2019-05-11T11:30:37.954Z,101222.02
2019-05-11T11:33:07.962Z,101222.61
2019-05-11T11:35:38.548Z,101223.90
2019-05-11T11:38:08.698Z,101220.70
2019-05-11T11:40:38.738Z,101224.44
2019-05-11T11:43:08.695Z,101232.14
2019-05-11T11:45:38.087Z,101226.91
2019-05-11T11:48:08.639Z,101235.37
2019-05-11T11:50:37.915Z,101231.08
2019-05-11T11:53:08.368Z,101233.34
2019-05-11T11:55:38.860Z,101230.30
2019-05-11T11:58:08.420Z,101237.77
2019-05-11T12:00:39.137Z,101228.52
2019-05-11T12:03:08.196Z,101224.83
2019-05-11T12:05:38.652Z,101218.14
2019-05-11T12:08:08.421Z,101234.73
2019-05-11T12:10:38.033Z,101237.02
2019-05-11T12:13:08.701Z,101231.02
2019-05-11T12:15:38.748Z,101241.15
2019-05-11T12:18:08.347Z,101233.59
2019-05-11T12:20:39.006Z,101237.95
2019-05-11T12:23:08.766Z,101240.28
2019-05-11T12:25:40.355Z,101245.40
2019-05-11T12:28:08.218Z,101239.45
2019-05-11T12:30:37.689Z,101238.39
2019-05-11T12:33:08.276Z,101247.87
2019-05-11T12:35:37.759Z,101252.84
2019-05-11T12:38:07.848Z,101251.75
2019-05-11T12:40:38.936Z,101266.38
2019-05-11T12:43:08.326Z,101261.98
2019-05-11T12:45:37.713Z,101258.13
2019-05-11T12:48:08.921Z,101269.42
2019-05-11T12:50:37.871Z,101263.36
2019-05-11T12:53:08.008Z,101265.16
2019-05-11T12:55:37.953Z,101268.16
2019-05-11T12:58:08.553Z,101260.77
2019-05-11T13:00:39.167Z,101274.59
2019-05-11T13:03:08.375Z,101273.61
2019-05-11T13:05:37.882Z,101269.97
2019-05-11T13:08:07.979Z,101274.55
2019-05-11T13:10:37.613Z,101281.16
2019-05-11T13:13:08.842Z,101276.22
2019-05-11T13:15:38.723Z,101275.75
2019-05-11T13:18:08.503Z,101282.16
2019-05-11T13:20:37.832Z,101290.25
2019-05-11T13:23:07.990Z,101291.13
2019-05-11T13:25:38.800Z,101279.71
2019-05-11T13:28:08.565Z,101289.81
2019-05-11T13:30:38.269Z,101295.25
2019-05-11T13:33:08.603Z,101287.92
2019-05-11T13:35:37.751Z,101296.11
2019-05-11T13:38:08.728Z,101296.11
2019-05-11T13:40:38.189Z,101289.89
2019-05-11T13:43:08.307Z,101289.42
2019-05-11T13:45:38.714Z,101294.42
2019-05-11T13:48:08.554Z,101297.42
2019-05-11T13:50:38.653Z,101309.17
2019-05-11T13:53:07.866Z,101308.53
2019-05-11T13:55:38.818Z,101308.84
2019-05-11T13:58:08.339Z,101311.59
2019-05-11T14:00:38.063Z,101310.59
2019-05-11T14:03:08.593Z,101312.41
2019-05-11T14:05:37.988Z,101313.37
2019-05-11T14:08:08.096Z,101320.81
2019-05-11T14:10:38.366Z,101310.70
2019-05-11T14:13:08.903Z,101323.56
2019-05-11T14:15:37.839Z,101324.55
2019-05-11T14:18:09.384Z,101319.28
2019-05-11T14:20:37.971Z,101323.83
2019-05-11T14:23:07.690Z,101317.27
2019-05-11T14:25:38.054Z,101318.93
2019-05-11T14:28:08.904Z,101317.45
2019-05-11T14:30:38.695Z,101317.81
2019-05-11T14:33:08.774Z,101323.53
2019-05-11T14:35:38.555Z,101314.11
2019-05-11T14:38:08.110Z,101323.83
2019-05-11T14:40:38.752Z,101327.99
2019-05-11T14:43:08.376Z,101323.54
2019-05-11T14:45:38.234Z,101328.37
2019-05-11T14:48:22.601Z,101329.80
2019-05-11T14:50:39.405Z,101330.06
2019-05-11T14:53:08.734Z,101331.97
2019-05-11T14:55:38.136Z,101343.66
2019-05-11T14:58:08.349Z,101350.86
2019-05-11T15:00:39.174Z,101348.64
2019-05-11T15:03:08.830Z,101354.20
2019-05-11T15:05:41.137Z,101364.42
2019-05-11T15:08:08.760Z,101368.15
2019-05-11T15:10:38.307Z,101361.34
2019-05-11T15:13:08.086Z,101366.39
2019-05-11T15:15:39.224Z,101366.57
2019-05-11T15:18:08.516Z,101363.78
2019-05-11T15:20:38.900Z,101360.84
2019-05-11T15:23:08.801Z,101377.70
2019-05-11T15:25:38.347Z,101374.08
2019-05-11T15:28:08.950Z,101375.38
2019-05-11T15:30:38.187Z,101380.80
2019-05-11T15:33:07.850Z,101378.74
2019-05-11T15:35:37.742Z,101371.38
2019-05-11T15:38:08.692Z,101383.77
2019-05-11T15:40:38.490Z,101382.80
2019-05-11T15:43:08.785Z,101388.36
2019-05-11T15:45:38.265Z,101395.09
2019-05-11T15:48:08.408Z,101386.66
2019-05-11T15:50:39.892Z,101401.34
2019-05-11T15:53:08.764Z,101400.59
2019-05-11T15:55:42.255Z,101399.83
2019-05-11T15:58:09.322Z,101402.92
2019-05-11T16:00:40.051Z,101393.59
2019-05-11T16:03:08.674Z,101399.95
2019-05-11T16:05:37.374Z,101401.75
2019-05-11T16:08:08.394Z,101405.13
2019-05-11T16:10:38.414Z,101409.34
2019-05-11T16:13:09.237Z,101411.28
2019-05-11T16:15:38.376Z,101410.83
2019-05-11T16:18:08.322Z,101417.52
2019-05-11T16:20:37.150Z,101415.50
2019-05-11T16:23:05.805Z,101415.28
2019-05-11T16:25:34.799Z,101422.99
2019-05-11T16:28:03.444Z,101428.16
2019-05-11T16:30:32.379Z,101431.05
2019-05-11T16:33:01.363Z,101433.35
2019-05-11T16:35:30.355Z,101428.00
2019-05-11T16:37:59.416Z,101427.92
2019-05-11T16:40:29.509Z,101434.89
2019-05-11T16:42:58.868Z,101443.83
2019-05-11T16:45:28.328Z,101437.33
2019-05-11T16:47:58.870Z,101446.27
2019-05-11T16:50:28.293Z,101445.34
2019-05-11T16:52:58.477Z,101447.19
2019-05-11T16:55:27.504Z,101442.28
2019-05-11T16:57:58.620Z,101447.20
2019-05-11T17:00:27.160Z,101444.89
2019-05-11T17:02:57.695Z,101443.48
2019-05-11T17:05:33.187Z,101438.61
2019-05-11T17:07:58.716Z,101442.34
2019-05-11T17:10:28.524Z,101443.87
2019-05-11T17:12:58.167Z,101448.19
2019-05-11T17:15:28.914Z,101452.30
2019-05-11T17:17:58.777Z,101455.20
2019-05-11T17:20:27.949Z,101458.52
2019-05-11T17:22:56.598Z,101467.11
2019-05-11T17:25:25.595Z,101467.42
2019-05-11T17:27:54.315Z,101468.20
2019-05-11T17:30:22.950Z,101472.62
2019-05-11T17:32:51.579Z,101480.09
2019-05-11T17:35:20.519Z,101475.17
2019-05-11T17:37:49.212Z,101479.92
2019-05-11T17:40:22.810Z,101479.45
2019-05-11T17:42:48.944Z,101482.80
2019-05-11T17:45:18.879Z,101486.15
2019-05-11T17:47:48.066Z,101485.00
2019-05-11T17:50:19.124Z,101487.63
2019-05-11T17:52:48.011Z,101489.95
2019-05-11T17:55:18.461Z,101489.56
2019-05-11T17:57:49.578Z,101493.09
2019-05-11T18:00:20.135Z,101494.33
2019-05-11T18:02:49.242Z,101500.85
2019-05-11T18:05:18.269Z,101499.60
2019-05-11T18:07:47.494Z,101501.00
2019-05-11T18:10:18.580Z,101500.12
2019-05-11T18:12:48.592Z,101512.78
2019-05-11T18:15:18.771Z,101513.27
2019-05-11T18:17:48.648Z,101504.53
2019-05-11T18:20:21.416Z,101507.59
2019-05-11T18:22:49.117Z,101513.23
2019-05-11T18:25:18.572Z,101520.17
2019-05-11T18:27:48.420Z,101526.70
2019-05-11T18:30:18.346Z,101532.29
2019-05-11T18:32:49.088Z,101536.98
2019-05-11T18:35:19.364Z,101544.32
2019-05-11T18:37:48.191Z,101538.61
2019-05-11T18:40:18.747Z,101540.28
2019-05-11T18:42:48.717Z,101543.59
2019-05-11T18:45:18.891Z,101548.62
2019-05-11T18:47:49.011Z,101552.05
2019-05-11T18:50:29.973Z,101557.75
2019-05-11T18:52:49.357Z,101555.36
2019-05-11T18:55:19.184Z,101555.71
2019-05-11T18:57:49.031Z,101559.61
2019-05-11T19:00:18.821Z,101566.45
2019-05-11T19:02:49.503Z,101566.20
2019-05-11T19:05:18.292Z,101576.52
2019-05-11T19:07:48.171Z,101576.90
2019-05-11T19:10:17.194Z,101586.75
2019-05-11T19:12:48.424Z,101589.80
2019-05-11T19:15:18.741Z,101586.88
2019-05-11T19:17:48.993Z,101588.18
2019-05-11T19:20:18.283Z,101584.64
2019-05-11T19:22:47.194Z,101581.02
2019-05-11T19:25:18.112Z,101581.03
2019-05-11T19:27:50.353Z,101581.05
2019-05-11T19:30:18.461Z,101582.14
2019-05-11T19:32:48.701Z,101586.43
2019-05-11T19:35:20.953Z,101586.88
2019-05-11T19:37:48.892Z,101593.78
2019-05-11T19:40:17.591Z,101597.52
2019-05-11T19:42:58.743Z,101605.23
2019-05-11T19:45:29.070Z,101615.71
2019-05-11T19:47:57.940Z,101626.91
2019-05-11T19:50:26.824Z,101639.66
2019-05-11T19:52:57.776Z,101647.09
2019-05-11T19:55:28.527Z,101652.16
2019-05-11T19:57:57.593Z,101657.45
2019-05-11T20:00:26.290Z,101664.16
2019-05-11T20:02:54.928Z,101672.38
2019-05-11T20:05:23.614Z,101679.69
2019-05-11T20:07:52.484Z,101678.16
2019-05-11T20:10:21.119Z,101675.66
2019-05-11T20:12:49.832Z,101661.11
2019-05-11T20:15:19.305Z,101661.03
2019-05-11T20:17:49.146Z,101664.86
2019-05-11T20:20:18.642Z,101674.50
2019-05-11T20:22:48.537Z,101680.83
2019-05-11T20:25:18.923Z,101686.18
2019-05-11T20:27:48.866Z,101684.66
2019-05-11T20:30:19.376Z,101684.70
2019-05-11T20:32:49.157Z,101686.83
2019-05-11T20:35:18.124Z,101686.33
2019-05-11T20:37:47.025Z,101691.23
2019-05-11T20:40:18.073Z,101687.63
2019-05-11T20:42:49.151Z,101689.62
2019-05-11T20:45:18.821Z,101684.90
2019-05-11T20:47:48.672Z,101692.22
2019-05-11T20:50:18.557Z,101689.09
2019-05-11T20:52:48.278Z,101692.14
2019-05-11T20:55:18.203Z,101699.04
2019-05-11T20:57:48.705Z,101705.53
2019-05-11T21:00:18.729Z,101707.94
2019-05-11T21:02:48.963Z,101702.69
2019-05-11T21:05:18.377Z,101709.72
2019-05-11T21:07:47.771Z,101709.88
2019-05-11T21:10:17.454Z,101712.37
2019-05-11T21:12:46.449Z,101716.88
2019-05-11T21:15:16.260Z,101716.43
2019-05-11T21:17:44.928Z,101716.88
2019-05-11T21:20:13.614Z,101721.42
2019-05-11T21:22:42.857Z,101715.73
2019-05-11T21:25:11.711Z,101715.92
2019-05-11T21:27:41.032Z,101718.11
2019-05-11T21:30:10.344Z,101718.52
2019-05-11T21:32:39.167Z,101721.02
2019-05-11T21:35:08.967Z,101722.02
2019-05-11T21:37:38.889Z,101725.52
2019-05-11T21:40:09.346Z,101725.97
2019-05-11T21:42:39.182Z,101727.19
2019-05-11T21:45:09.430Z,101727.28
2019-05-11T21:47:39.810Z,101732.47
2019-05-11T21:50:08.815Z,101735.47
2019-05-11T21:52:38.620Z,101730.84
2019-05-11T21:55:09.982Z,101741.30
2019-05-11T21:57:38.829Z,101745.20
2019-05-11T22:00:09.364Z,101752.59
2019-05-11T22:02:39.042Z,101759.72
2019-05-11T22:05:08.794Z,101770.52
2019-05-11T22:07:38.706Z,101774.26
2019-05-11T22:10:09.974Z,101774.44
2019-05-11T22:12:39.503Z,101783.66
2019-05-11T22:15:09.371Z,101786.37
2019-05-11T22:17:39.593Z,101791.50
2019-05-11T22:20:09.029Z,101792.98
2019-05-11T22:22:39.030Z,101796.84
2019-05-11T22:25:08.434Z,101793.43
2019-05-11T22:27:38.903Z,101795.92
2019-05-11T22:30:08.738Z,101802.75
2019-05-11T22:32:38.771Z,101801.84
2019-05-11T22:35:08.897Z,101794.39
2019-05-11T22:37:38.563Z,101801.40
2019-05-11T22:40:08.942Z,101806.03
2019-05-11T22:42:37.872Z,101811.05
2019-05-11T22:45:08.564Z,101811.86
2019-05-11T22:47:39.287Z,101819.33
2019-05-11T22:50:08.437Z,101817.66
2019-05-11T22:52:39.716Z,101819.92
2019-05-11T22:55:11.580Z,101821.20
2019-05-11T22:57:38.704Z,101827.97
2019-05-11T23:00:08.170Z,101822.31
2019-05-11T23:02:38.049Z,101827.24
2019-05-11T23:05:08.532Z,101836.70
2019-05-11T23:07:41.093Z,101839.87
2019-05-11T23:10:08.833Z,101844.75
2019-05-11T23:12:38.753Z,101849.65
2019-05-11T23:15:12.894Z,101845.30
2019-05-11T23:17:42.148Z,101848.87
2019-05-11T23:20:11.736Z,101854.13
2019-05-11T23:22:57.792Z,101857.51
2019-05-11T23:25:20.355Z,101856.17
2019-05-11T23:27:49.230Z,101865.20
2019-05-11T23:30:19.771Z,101860.53
2019-05-11T23:32:49.168Z,101863.71
2019-05-11T23:35:19.065Z,101877.19
2019-05-11T23:37:49.424Z,101871.50
2019-05-11T23:40:19.221Z,101872.87
2019-05-11T23:42:48.988Z,101874.75
2019-05-11T23:45:19.252Z,101874.68
2019-05-11T23:47:49.027Z,101881.27
2019-05-11T23:50:19.120Z,101890.23
2019-05-11T23:52:50.237Z,101893.53
2019-05-11T23:55:19.343Z,101898.34
2019-05-11T23:57:48.848Z,101896.02
